Latest Weather Observations for Keith West

IDS60801

Issued at 5:05 pm CST Saturday 20 September 2014 (issued every 30 minutes, with the page automatically refreshed every 10 minutes)

About weather observations | Map of weather stations | Latest weather observations for SA | Other Formats
Station Details ID: 025557 Name: MUNKORA Lat: -36.11 Lon: 140.33 Height: 27.0 m
Data from the previous 72 hours. | See also: Recent months for locations in South Australia
Date/Time
CST
Temp
°C
App
Temp
°C
Dew
Point
Rel
Hum
%
Delta-T
°C
Wind Press
QNH
hPa
Press
MSL
hPa
Rain
since 9 am
mm
Dir
 
Spd
km/h
Gust
km/h
Spd
kts
Gust
kts
20/05:00pm 17.6 14.6 3.9 40 6.4 S 9 13 5 7 1027.1 1027.2 0.0
20/04:30pm 18.3 14.6 2.6 35 7.2 SSE 11 17 6 9 1026.7 1026.8 0.0
20/04:00pm 18.9 15.9 2.3 33 7.6 S 7 15 4 8 1026.5 1026.6 0.0
20/03:30pm 19.1 15.1 2.9 34 7.5 S 13 19 7 10 1026.3 1026.4 0.0
20/03:00pm 19.3 16.4 2.6 33 7.7 SSW 7 11 4 6 1026.3 1026.4 0.0
20/02:30pm 19.2 16.2 1.7 31 7.9 SSE 7 15 4 8 1026.4 1026.5 0.0
20/02:00pm 19.4 16.7 2.7 33 7.8 WSW 6 9 3 5 1026.5 1026.6 0.0
20/01:30pm 18.6 15.7 1.2 31 7.7 ESE 6 11 3 6 1026.5 1026.6 0.0
20/01:00pm 18.8 15.5 2.2 33 7.6 E 9 17 5 9 1026.7 1026.8 0.0
20/12:30pm 18.5 15.1 1.9 33 7.5 E 9 15 5 8 1026.9 1027.0 0.0
20/12:00pm 18.2 15.3 2.5 35 7.1 ESE 7 13 4 7 1027.3 1027.4 0.0
20/11:30am 17.7 15.0 3.6 39 6.5 E 7 17 4 9 1027.7 1027.8 0.0
20/11:00am 17.0 13.4 3.0 39 6.4 ENE 11 20 6 11 1027.8 1027.9 0.0
20/10:30am 16.6 13.0 4.9 46 5.5 ENE 13 19 7 10 1028.2 1028.3 0.0
20/10:00am 15.6 11.4 5.5 51 4.8 E 17 20 9 11 1028.6 1028.7 0.0
20/09:30am 15.0 10.5 6.3 56 4.2 ENE 19 22 10 12 1028.8 1028.9 0.0
20/09:00am 13.7 10.0 6.1 60 3.6 ENE 15 20 8 11 1028.9 1029.0 0.0
20/08:30am 11.8 7.2 5.7 66 2.8 ENE 19 28 10 15 1028.5 1028.6 0.0
20/08:00am 9.8 6.4 5.8 76 1.8 E 13 17 7 9 1028.3 1028.4 0.0
20/07:30am 7.9 4.3 5.0 82 1.3 ENE 13 17 7 9 1028.0 1028.1 0.0
20/07:00am 5.6 2.6 4.2 91 0.6 E 9 15 5 8 1027.5 1027.6 0.0
20/06:30am 1.9 -1.2 1.3 96 0.2 E 7 11 4 6 1027.2 1027.3 0.0
20/06:00am 0.9 -2.4 0.2 95 0.3 ESE 7 9 4 5 1026.9 1027.0 0.0
20/05:30am 1.3 -2.3 0.6 95 0.3 ESE 9 11 5 6 1026.6 1026.7 0.0
20/05:00am 1.5 -1.7 0.8 95 0.3 E 7 9 4 5 1026.1 1026.2 0.0
20/04:30am 1.5 -1.7 0.6 94 0.3 ESE 7 9 4 5 1025.6 1025.7 0.0
20/04:00am 2.3 -0.8 1.4 94 0.3 ESE 7 9 4 5 1025.4 1025.5 0.0
20/03:30am 2.6 -0.4 1.7 94 0.3 ESE 7 9 4 5 1025.2 1025.3 0.0
20/03:00am 2.3 -1.2 1.1 92 0.5 ESE 9 11 5 6 1025.2 1025.3 0.0
20/02:30am 3.5 -0.2 2.2 91 0.5 E 11 13 6 7 1025.1 1025.2 0.0
20/02:00am 3.3 -0.4 2.1 92 0.5 E 11 13 6 7 1025.1 1025.2 0.0
20/01:30am 2.7 -1.2 1.2 90 0.6 E 11 13 6 7 1025.3 1025.4 0.0
20/01:00am 2.4 -1.2 0.8 89 0.6 ESE 9 11 5 6 1025.5 1025.6 0.0
20/12:30am 3.0 0.0 1.7 91 0.5 ESE 7 9 4 5 1025.5 1025.6 0.0
20/12:00am 4.1 1.2 2.6 90 0.6 ESE 7 9 4 5 1025.5 1025.6 0.0
 
Date/Time
CST
Temp
°C
App
Temp
°C
Dew
Point
Rel
Hum
%
Delta-T
°C
Wind Press
QNH
hPa
Press
MSL
hPa
Rain
since 9 am
mm
Dir
 
Spd
km/h
Gust
km/h
Spd
kts
Gust
kts
19/11:30pm 3.4 0.4 2.2 92 0.5 SE 7 9 4 5 1025.5 1025.6 0.0
19/11:00pm 3.7 1.3 2.1 89 0.6 SE 4 6 2 3 1025.6 1025.7 0.0
19/10:30pm 4.3 2.0 2.8 90 0.6 SSE 4 6 2 3 1025.9 1026.0 0.0
19/10:00pm 4.7 2.0 2.7 87 0.8 SSE 6 6 3 3 1025.8 1025.9 0.0
19/09:30pm 5.6 2.4 3.1 84 1.0 SSE 9 11 5 6 1025.8 1025.9 0.0
19/09:00pm 6.3 3.6 3.8 84 1.1 S 7 9 4 5 1025.9 1026.0 0.0
19/08:30pm 7.6 4.6 4.0 78 1.5 S 9 11 5 6 1025.7 1025.8 0.0
19/08:00pm 8.0 4.8 3.1 71 2.1 S 9 13 5 7 1025.7 1025.8 0.0
19/07:30pm 9.2 6.0 3.2 66 2.6 SSE 9 13 5 7 1025.4 1025.5 0.0
19/07:00pm 9.5 6.3 3.3 65 2.7 SSE 9 11 5 6 1025.1 1025.2 0.0
19/06:30pm 9.8 7.1 3.5 65 2.7 SSE 7 11 4 6 1025.0 1025.1 0.0
19/06:00pm 12.1 9.0 3.6 56 3.8 S 9 11 5 6 1024.7 1024.8 0.0
19/05:30pm 14.0 10.9 3.5 49 4.7 SSE 9 15 5 8 1024.5 1024.6 0.0
19/05:00pm 15.5 12.3 3.3 44 5.6 SSE 9 15 5 8 1024.3 1024.4 0.0
19/04:30pm 16.7 14.3 2.0 37 6.5 S 4 9 2 5 1024.3 1024.4 0.0
19/04:00pm 16.5 14.5 2.2 38 6.4 S 2 6 1 3 1024.2 1024.3 0.0
19/03:30pm 16.9 13.9 1.0 34 6.9 WSW 6 9 3 5 1024.1 1024.1 0.0
19/03:00pm 16.9 13.5 1.8 36 6.7 SSW 9 15 5 8 1024.1 1024.1 0.0
19/02:30pm 16.8 13.8 2.0 37 6.6 S 7 13 4 7 1024.4 1024.5 0.0
19/02:00pm 16.7 13.6 1.2 35 6.8 SSW 7 15 4 8 1024.6 1024.7 0.0
19/01:30pm 16.5 13.5 1.0 35 6.7 NW 6 13 3 7 1024.8 1024.9 0.0
19/01:00pm 16.3 13.5 2.3 39 6.3 WSW 6 9 3 5 1025.1 1025.2 0.0
19/12:30pm 16.3 13.3 0.8 35 6.7 ENE 6 11 3 6 1025.6 1025.7 0.0
19/12:00pm 16.3 14.0 2.7 40 6.1 WSW 4 11 2 6 1025.9 1026.0 0.0
19/11:30am 15.7 13.0 2.5 41 5.9 S 6 11 3 6 1026.3 1026.4 0.0
19/11:00am 15.0 12.3 2.9 44 5.4 NE 6 11 3 6 1026.6 1026.7 0.0
19/10:30am 14.2 11.4 3.1 47 4.9 ESE 7 13 4 7 1026.8 1026.9 0.0
19/10:00am 13.8 10.7 3.6 50 4.6 E 9 17 5 9 1027.2 1027.3 0.0
19/09:30am 12.3 9.8 5.0 61 3.3 E 7 13 4 7 1027.3 1027.4 0.0
19/09:00am 10.6 8.4 5.2 69 2.4 E 6 9 3 5 1027.4 1027.5 0.0
19/08:30am 8.6 6.4 5.5 81 1.4 ESE 6 9 3 5 1027.4 1027.5 0.0
19/08:00am 6.0 4.1 5.0 93 0.4 SE 4 6 2 3 1027.4 1027.5 0.0
19/07:30am 3.2 0.9 2.6 96 0.2 S 4 4 2 2 1027.1 1027.2 0.0
19/07:00am -0.1 -2.2 -0.5 97 0.1 CALM 0 0 0 0 1026.8 1026.9 0.0
19/06:30am -0.6 -3.1 -0.9 98 0.1 SE 2 4 1 2 1026.4 1026.5 0.0
19/06:00am -0.7 -3.6 -1.0 98 0.1 SE 4 4 2 2 1026.1 1026.2 0.0
19/05:30am -1.6 -4.6 -2.0 97 0.1 SE 4 6 2 3 1025.9 1026.0 0.0
19/05:00am -1.2 -4.5 -1.6 97 0.1 SE 6 6 3 3 1025.7 1025.8 0.0
19/04:30am -1.6 -3.9 -2.0 97 0.1 CALM 0 6 0 3 1025.5 1025.6 0.0
19/04:00am -1.3 -3.5 -1.7 97 0.1 CALM 0 0 0 0 1025.6 1025.7 0.0
19/03:30am -1.1 -3.3 -1.5 97 0.1 CALM 0 0 0 0 1025.7 1025.8 0.0
19/03:00am -1.1 -3.3 -1.5 97 0.1 CALM 0 0 0 0 1025.7 1025.8 0.0
19/02:30am -0.1 -2.5 -0.5 97 0.1 SSE 2 4 1 2 1025.8 1025.9 0.0
19/02:00am -0.1 -2.9 -0.7 96 0.2 SSE 4 4 2 2 1025.9 1026.0 0.0
19/01:30am 0.4 -2.8 -0.2 96 0.2 S 6 6 3 3 1025.8 1025.9 0.0
19/01:00am 0.2 -2.6 -0.4 96 0.2 S 4 4 2 2 1026.0 1026.1 0.0
19/12:30am 1.3 -1.0 0.7 96 0.2 S 2 4 1 2 1026.1 1026.2 0.0
19/12:00am 0.5 -1.9 -0.2 95 0.2 S 2 4 1 2 1026.1 1026.2 0.0
 
Date/Time
CST
Temp
°C
App
Temp
°C
Dew
Point
Rel
Hum
%
Delta-T
°C
Wind Press
QNH
hPa
Press
MSL
hPa
Rain
since 9 am
mm
Dir
 
Spd
km/h
Gust
km/h
Spd
kts
Gust
kts
18/11:30pm 0.8 -1.2 -0.1 94 0.3 CALM 0 0 0 0 1026.2 1026.3 0.0
18/11:00pm 2.6 0.1 1.6 93 0.4 S 4 6 2 3 1026.2 1026.3 0.0
18/10:30pm 2.4 -0.2 1.1 91 0.5 S 4 4 2 2 1026.5 1026.6 0.0
18/10:00pm 4.1 1.3 1.8 85 0.9 S 6 6 3 3 1026.6 1026.7 0.0
18/09:30pm 6.3 3.7 4.3 87 0.9 S 7 9 4 5 1026.6 1026.7 0.0
18/09:00pm 5.7 2.2 3.4 85 1.0 S 11 13 6 7 1026.4 1026.5 0.0
18/08:30pm 5.8 2.7 3.5 85 1.0 S 9 13 5 7 1026.2 1026.3 0.0
18/08:00pm 7.2 3.9 4.3 82 1.3 SW 11 13 6 7 1026.1 1026.2 0.0
18/07:30pm 7.5 4.1 4.1 79 1.5 WSW 11 15 6 8 1025.9 1026.0 0.0
18/07:00pm 8.2 4.9 4.4 77 1.7 SW 11 15 6 8 1025.7 1025.8 0.0
18/06:30pm 9.1 5.8 4.7 74 1.9 WSW 11 13 6 7 1025.4 1025.5 0.0
18/06:00pm 11.9 8.0 5.3 64 3.0 SW 15 19 8 10 1024.9 1025.0 0.0
18/05:30pm 12.6 10.0 6.0 64 3.1 SSW 9 11 5 6 1024.6 1024.7 0.0
18/05:00pm 12.8 9.1 6.2 64 3.1 SSW 15 19 8 10 1024.4 1024.5 0.0
18/04:30pm 13.3 8.8 6.9 65 3.1 S 20 28 11 15 1024.3 1024.4 0.0
18/04:00pm 15.5 12.2 4.6 48 5.1 SW 11 15 6 8 1024.2 1024.3 0.0
18/03:30pm 14.0 11.2 5.1 55 4.1 SSW 9 13 5 7 1024.3 1024.4 0.0
18/03:00pm 14.3 11.2 5.4 55 4.2 S 11 15 6 8 1024.3 1024.4 0.0
18/02:30pm 15.3 12.6 3.5 45 5.4 SSW 7 11 4 6 1024.2 1024.3 0.0
18/02:00pm 14.1 10.8 4.7 53 4.4 SW 11 17 6 9 1024.5 1024.6 0.0
18/01:30pm 13.6 11.4 6.0 60 3.6 WSW 7 15 4 8 1024.7 1024.8 0.0
18/01:00pm 14.1 11.5 6.0 58 3.9 SW 9 17 5 9 1024.9 1025.0 0.0
18/12:30pm 14.4 11.1 6.3 58 3.9 SSW 13 19 7 10 1025.3 1025.4 0.0
18/12:00pm 13.3 8.5 5.7 60 3.6 S 20 26 11 14 1025.5 1025.6 0.0
18/11:30am 14.3 11.9 4.3 51 4.6 SSE 6 13 3 7 1025.7 1025.8 0.0
18/11:00am 13.2 10.8 4.4 55 4.0 S 6 13 3 7 1025.9 1026.0 0.0
18/10:30am 12.9 10.5 4.3 56 3.9 WSW 6 9 3 5 1026.1 1026.2 0.0
18/10:00am 12.7 10.4 4.9 59 3.6 SE 6 11 3 6 1026.2 1026.3 0.0
18/09:30am 13.0 10.8 5.2 59 3.6 S 6 7 3 4 1026.3 1026.4 0.0
18/09:00am 12.2 10.0 5.4 63 3.1 SSE 6 9 3 5 1026.4 1026.5 1.2
18/08:30am 11.2 9.2 6.3 72 2.3 W 6 7 3 4 1026.3 1026.4 1.2
18/08:00am 10.3 8.4 6.8 79 1.6 W 6 9 3 5 1026.0 1026.1 1.2
18/07:30am 9.5 7.4 6.6 82 1.3 WNW 7 9 4 5 1025.7 1025.8 1.0
18/07:00am 9.0 7.3 5.9 81 1.4 SW 4 6 2 3 1025.4 1025.5 1.0
18/06:30am 9.0 6.3 5.4 78 1.6 SW 9 13 5 7 1025.3 1025.4 1.0
18/06:00am 9.1 6.7 4.5 73 2.0 SW 6 9 3 5 1024.9 1025.0 1.0
18/05:30am 8.9 6.1 5.1 77 1.7 WSW 9 13 5 7 1024.8 1024.9 1.0
18/05:00am 8.0 5.6 5.1 82 1.3 SSW 7 11 4 6 1024.5 1024.6 1.0
18/04:30am 7.6 5.5 5.6 87 0.9 WSW 6 7 3 4 1024.3 1024.4 1.0
18/04:00am 7.5 5.4 5.6 88 0.9 W 6 7 3 4 1024.0 1024.0 1.0
18/03:30am 7.5 5.2 5.8 89 0.8 W 7 9 4 5 1023.9 1023.9 1.0
18/03:00am 7.7 6.6 5.2 84 1.1 CALM 0 2 0 1 1023.6 1023.6 1.0
18/02:30am 8.0 6.7 6.1 88 0.9 WSW 2 4 1 2 1023.8 1023.8 1.0
18/02:00am 8.2 6.6 6.5 89 0.8 WSW 4 4 2 2 1024.0 1024.0 1.0
18/01:30am 8.3 6.7 6.4 88 0.9 WSW 4 6 2 3 1024.1 1024.1 1.0
18/01:00am 8.4 6.8 6.4 87 0.9 WSW 4 4 2 2 1024.2 1024.3 1.0
18/12:30am 8.5 6.9 6.3 86 1.0 WSW 4 7 2 4 1024.1 1024.1 1.0
18/12:00am 8.6 6.6 6.4 86 1.0 SW 6 7 3 4 1024.1 1024.1 1.0
 
Date/Time
CST
Temp
°C
App
Temp
°C
Dew
Point
Rel
Hum
%
Delta-T
°C
Wind Press
QNH
hPa
Press
MSL
hPa
Rain
since 9 am
mm
Dir
 
Spd
km/h
Gust
km/h
Spd
kts
Gust
kts
17/11:30pm 8.4 7.3 6.7 89 0.8 SW 2 4 1 2 1024.0 1024.0 1.0
17/11:00pm 8.2 6.4 7.1 93 0.5 WSW 6 9 3 5 1024.1 1024.1 1.0
17/10:30pm 7.9 5.8 6.5 91 0.6 W 7 7 4 4 1024.1 1024.1 1.0
17/10:00pm 8.2 6.3 6.7 90 0.7 WSW 6 7 3 4 1023.8 1023.8 1.0
17/09:30pm 8.6 6.7 6.9 89 0.8 WSW 6 7 3 4 1024.0 1024.0 1.0
17/09:00pm 8.8 6.8 7.1 89 0.8 SW 7 9 4 5 1023.9 1023.9 1.0
17/08:30pm 8.8 6.5 7.3 90 0.7 WSW 9 13 5 7 1023.7 1023.7 1.0
17/08:00pm 6.9 4.5 5.4 90 0.7 SW 7 9 4 5 1023.4 1023.4 1.0
17/07:30pm 7.1 4.7 5.4 89 0.8 WSW 7 9 4 5 1023.1 1023.1 1.0
17/07:00pm 7.2 4.7 4.7 84 1.1 WSW 7 9 4 5 1022.8 1022.8 1.0
17/06:30pm 9.1 5.7 5.7 79 1.5 SW 13 17 7 9 1022.5 1022.5 1.0
17/06:00pm 10.7 6.0 5.3 69 2.5 SW 19 26 10 14 1022.4 1022.4 1.0
17/05:30pm 11.7 6.6 6.0 68 2.7 SW 22 32 12 17 1022.1 1022.1 1.0

Other Formats:

Comma delimited format used in spreadsheet applications
http://www.bom.gov.au/fwo/IDS60801/IDS60801.95815.axf

JavaScript Object Notation format (JSON) in row-major order
http://www.bom.gov.au/fwo/IDS60801/IDS60801.95815.json